Time;durP1;ratioP1;P1;durP2;ratioP2;P2;SDS_P1;SDS_P2;PMS_P1;PMS_P2;Temp;Humidity;BMP_temperature;BMP_pressure;BME280_temperature;BME280_humidity;BME280_pressure;Samples;Min_cycle;Max_cycle;Signal;HPM_P1;HPM_P2
2023/08/03 00:02:16;;;;;;;;;3.75;2.50;;;;;;;;4845824;29;45506;-69
2023/08/03 00:04:41;;;;;;;;;4.25;3.00;;;;;;;;4845604;29;45414;-69
2023/08/03 00:07:06;;;;;;;;;5.25;5.25;;;;;;;;4845692;29;45358;-69
2023/08/03 00:09:31;;;;;;;;;4.50;2.00;;;;;;;;4845584;29;45325;-68
2023/08/03 00:11:56;;;;;;;;;10.75;6.50;;;;;;;;4844777;29;45176;-69
2023/08/03 00:14:22;;;;;;;;;6.75;4.00;;;;;;;;4845700;29;45223;-68
2023/08/03 00:16:47;;;;;;;;;7.75;1.75;;;;;;;;4845679;29;45381;-68
2023/08/03 00:19:12;;;;;;;;;4.00;2.00;;;;;;;;4845372;29;45500;-69
2023/08/03 00:21:37;;;;;;;;;3.00;3.00;;;;;;;;4845667;29;45236;-69
2023/08/03 00:24:03;;;;;;;;;7.50;3.00;;;;;;;;4845513;29;45473;-70
2023/08/03 00:26:29;;;;;;;;;5.00;2.25;;;;;;;;4845750;29;45221;-69
2023/08/03 00:28:54;;;;;;;;;7.75;2.25;;;;;;;;4845042;29;47012;-69
2023/08/03 00:31:19;;;;;;;;;4.00;4.00;;;;;;;;4845017;29;45291;-69
2023/08/03 00:33:45;;;;;;;;;2.25;2.25;;;;;;;;4845561;29;45360;-68
2023/08/03 00:36:10;;;;;;;;;2.25;2.25;;;;;;;;4845429;29;45436;-68
2023/08/03 00:38:35;;;;;;;;;2.50;1.75;;;;;;;;4845149;29;46250;-69
2023/08/03 00:41:00;;;;;;;;;6.00;2.00;;;;;;;;4844951;29;45327;-69
2023/08/03 00:43:25;;;;;;;;;2.75;2.75;;;;;;;;4844965;29;45460;-69
2023/08/03 00:45:51;;;;;;;;;4.25;3.00;;;;;;;;4845441;29;45279;-69
2023/08/03 00:48:19;;;;;;;;;6.50;1.00;;;;;;;;4844817;29;46602;-70
2023/08/03 00:50:44;;;;;;;;;5.00;3.00;;;;;;;;4843791;29;45428;-70
2023/08/03 00:53:09;;;;;;;;;3.00;2.50;;;;;;;;4844879;29;45474;-69
2023/08/03 00:55:35;;;;;;;;;3.00;1.50;;;;;;;;4845182;29;45490;-70
2023/08/03 00:58:00;;;;;;;;;2.75;1.00;;;;;;;;4844702;29;46354;-68
2023/08/03 01:00:25;;;;;;;;;3.00;1.50;;;;;;;;4844732;29;45247;-68
2023/08/03 01:02:51;;;;;;;;;5.00;2.00;;;;;;;;4845091;29;45300;-70
2023/08/03 01:05:16;;;;;;;;;5.25;1.25;;;;;;;;4845010;29;45397;-68
2023/08/03 01:07:41;;;;;;;;;5.00;1.75;;;;;;;;4844409;29;45347;-70
2023/08/03 01:10:07;;;;;;;;;3.00;2.00;;;;;;;;4845074;29;45403;-69
2023/08/03 01:12:32;;;;;;;;;1.50;1.25;;;;;;;;4844623;29;45276;-70
2023/08/03 01:14:57;;;;;;;;;5.25;2.50;;;;;;;;4845146;29;45455;-69
2023/08/03 01:17:24;;;;;;;;;4.00;2.00;;;;;;;;4844448;29;46910;-69
2023/08/03 01:19:50;;;;;;;;;2.50;2.50;;;;;;;;4844499;29;45371;-69
2023/08/03 01:22:16;;;;;;;;;5.75;1.25;;;;;;;;4843374;29;45260;-69
2023/08/03 01:24:41;;;;;;;;;2.25;1.25;;;;;;;;4846233;29;45320;-69
2023/08/03 01:27:06;;;;;;;;;3.50;3.00;;;;;;;;4847909;29;46195;-69
2023/08/03 01:29:31;;;;;;;;;3.50;1.25;;;;;;;;4847637;29;45284;-69
2023/08/03 01:31:58;;;;;;;;;3.50;2.00;;;;;;;;4847900;29;45387;-70
2023/08/03 01:34:24;;;;;;;;;6.75;4.25;;;;;;;;4847994;29;45325;-69
2023/08/03 01:36:49;;;;;;;;;3.25;1.25;;;;;;;;4847536;29;46191;-70
2023/08/03 01:39:14;;;;;;;;;4.75;1.75;;;;;;;;4847268;29;45419;-70
2023/08/03 01:41:41;;;;;;;;;3.75;2.00;;;;;;;;4847644;29;45370;-69
2023/08/03 01:44:18;;;;;;;;;4.00;1.00;;;;;;;;4847670;29;45438;-69
2023/08/03 01:46:43;;;;;;;;;4.25;1.25;;;;;;;;4847689;29;45549;-69
2023/08/03 01:49:09;;;;;;;;;3.00;3.00;;;;;;;;4847455;29;45373;-68
2023/08/03 01:51:34;;;;;;;;;3.75;1.75;;;;;;;;4847626;29;45411;-69
2023/08/03 01:53:59;;;;;;;;;2.00;2.00;;;;;;;;4847768;29;45255;-70
2023/08/03 01:56:24;;;;;;;;;2.25;1.00;;;;;;;;4847294;29;45660;-69
2023/08/03 01:58:49;;;;;;;;;3.25;2.00;;;;;;;;4847494;29;45321;-69
2023/08/03 02:01:14;;;;;;;;;2.25;1.00;;;;;;;;4847512;29;45335;-69
2023/08/03 02:03:40;;;;;;;;;4.50;1.00;;;;;;;;4847690;29;45248;-70
2023/08/03 02:06:05;;;;;;;;;3.25;1.00;;;;;;;;4847090;29;46432;-70
2023/08/03 02:08:30;;;;;;;;;2.25;1.00;;;;;;;;4847282;29;45305;-70
2023/08/03 02:10:55;;;;;;;;;1.25;1.25;;;;;;;;4847481;29;45263;-70
2023/08/03 02:13:20;;;;;;;;;2.00;1.00;;;;;;;;4847309;29;45486;-70
2023/08/03 02:15:46;;;;;;;;;3.75;2.00;;;;;;;;4847270;29;45339;-69
2023/08/03 02:18:11;;;;;;;;;3.25;1.75;;;;;;;;4846557;29;45313;-70
2023/08/03 02:20:36;;;;;;;;;1.00;1.00;;;;;;;;4847285;29;45325;-69
2023/08/03 02:23:01;;;;;;;;;2.75;1.00;;;;;;;;4847454;29;45391;-70
2023/08/03 02:25:27;;;;;;;;;3.00;1.75;;;;;;;;4846980;29;46699;-70
2023/08/03 02:27:52;;;;;;;;;1.50;1.50;;;;;;;;4847020;29;45318;-70
2023/08/03 02:30:17;;;;;;;;;3.00;2.50;;;;;;;;4846960;29;45324;-70
2023/08/03 02:32:42;;;;;;;;;2.50;2.00;;;;;;;;4846998;29;45447;-71
2023/08/03 02:35:08;;;;;;;;;2.50;1.00;;;;;;;;4846526;29;45469;-70
2023/08/03 02:37:33;;;;;;;;;3.50;0.50;;;;;;;;4846829;29;45355;-70
2023/08/03 02:39:58;;;;;;;;;3.00;2.00;;;;;;;;4846979;29;45287;-70
2023/08/03 02:42:23;;;;;;;;;2.25;2.25;;;;;;;;4846959;29;45426;-69
2023/08/03 02:44:48;;;;;;;;;2.50;1.00;;;;;;;;4846529;29;46347;-70
2023/08/03 02:47:14;;;;;;;;;6.75;1.00;;;;;;;;4846791;29;45709;-69
2023/08/03 02:49:39;;;;;;;;;2.00;2.00;;;;;;;;4846800;29;45427;-69
2023/08/03 02:52:05;;;;;;;;;6.00;3.50;;;;;;;;4847047;29;45439;-69
2023/08/03 02:54:30;;;;;;;;;5.25;2.00;;;;;;;;4846440;29;45504;-69
2023/08/03 02:56:55;;;;;;;;;3.00;2.00;;;;;;;;4846591;29;45562;-69
2023/08/03 02:59:20;;;;;;;;;4.75;2.75;;;;;;;;4846633;29;45362;-70
2023/08/03 03:01:45;;;;;;;;;1.25;0.50;;;;;;;;4846835;29;45412;-68
2023/08/03 03:04:11;;;;;;;;;2.00;2.00;;;;;;;;4846512;29;45364;-69
2023/08/03 03:06:38;;;;;;;;;4.50;1.75;;;;;;;;4846031;29;45356;-68
2023/08/03 03:09:03;;;;;;;;;6.00;2.00;;;;;;;;4846390;29;45362;-69
2023/08/03 03:11:28;;;;;;;;;2.00;2.00;;;;;;;;4846873;29;45313;-70
2023/08/03 03:13:54;;;;;;;;;4.75;2.25;;;;;;;;4846045;29;45358;-69
2023/08/03 03:16:25;;;;;;;;;4.00;2.00;;;;;;;;4846447;29;45427;-68
2023/08/03 03:18:50;;;;;;;;;2.25;2.25;;;;;;;;4846090;29;45412;-70
2023/08/03 03:21:15;;;;;;;;;2.25;1.25;;;;;;;;4846527;29;45423;-70
2023/08/03 03:23:40;;;;;;;;;3.25;3.00;;;;;;;;4846300;29;45402;-69
2023/08/03 03:26:06;;;;;;;;;2.75;2.50;;;;;;;;4846179;29;45331;-68
2023/08/03 03:28:31;;;;;;;;;3.25;1.75;;;;;;;;4846392;29;45415;-70
2023/08/03 03:30:56;;;;;;;;;5.00;3.00;;;;;;;;4846311;29;45368;-69
2023/08/03 03:33:21;;;;;;;;;2.00;2.00;;;;;;;;4846013;29;46240;-70
2023/08/03 03:35:46;;;;;;;;;4.00;3.00;;;;;;;;4846140;29;45496;-69
2023/08/03 03:38:12;;;;;;;;;7.75;2.75;;;;;;;;4846178;29;45514;-70
2023/08/03 03:40:37;;;;;;;;;4.00;4.00;;;;;;;;4846573;29;45418;-69
2023/08/03 03:43:02;;;;;;;;;6.75;2.50;;;;;;;;4845738;29;46451;-69
2023/08/03 03:45:29;;;;;;;;;5.75;3.50;;;;;;;;4845869;29;45427;-69
2023/08/03 03:47:54;;;;;;;;;3.75;1.00;;;;;;;;4845035;29;45248;-68
2023/08/03 03:50:19;;;;;;;;;3.00;3.00;;;;;;;;4845899;29;45537;-69
2023/08/03 03:52:45;;;;;;;;;10.25;2.75;;;;;;;;4845556;29;46360;-70
2023/08/03 03:55:10;;;;;;;;;2.00;2.00;;;;;;;;4845735;29;45256;-70
2023/08/03 03:57:36;;;;;;;;;6.25;3.00;;;;;;;;4845889;29;45344;-69
2023/08/03 04:00:04;;;;;;;;;3.00;3.00;;;;;;;;4845907;29;45323;-69
2023/08/03 04:02:29;;;;;;;;;3.00;3.00;;;;;;;;4845479;29;46323;-70
2023/08/03 04:04:54;;;;;;;;;2.00;2.00;;;;;;;;4845637;29;45403;-69
2023/08/03 04:07:20;;;;;;;;;2.75;2.75;;;;;;;;4845562;29;45370;-71
2023/08/03 04:09:45;;;;;;;;;2.50;1.50;;;;;;;;4845741;29;45305;-69
2023/08/03 04:12:10;;;;;;;;;2.25;2.25;;;;;;;;4845503;29;45561;-70
2023/08/03 04:14:35;;;;;;;;;4.00;2.00;;;;;;;;4845360;29;45480;-69
2023/08/03 04:17:00;;;;;;;;;5.25;2.00;;;;;;;;4845703;29;45422;-69
2023/08/03 04:19:26;;;;;;;;;5.00;2.00;;;;;;;;4845662;29;45358;-69
2023/08/03 04:21:51;;;;;;;;;1.50;1.50;;;;;;;;4845457;29;45478;-69
2023/08/03 04:24:16;;;;;;;;;1.25;1.25;;;;;;;;4845358;29;45239;-69
2023/08/03 04:26:41;;;;;;;;;8.00;3.50;;;;;;;;4845406;29;45322;-68
2023/08/03 04:29:06;;;;;;;;;3.50;3.00;;;;;;;;4845445;29;45469;-68
2023/08/03 04:31:32;;;;;;;;;1.75;1.75;;;;;;;;4844987;29;46382;-70
2023/08/03 04:33:57;;;;;;;;;2.25;2.25;;;;;;;;4845310;29;45405;-69
2023/08/03 04:36:22;;;;;;;;;3.25;1.75;;;;;;;;4845404;29;45311;-70
2023/08/03 04:38:47;;;;;;;;;3.25;3.25;;;;;;;;4845548;29;45263;-70
2023/08/03 04:41:14;;;;;;;;;4.00;3.00;;;;;;;;4845068;29;46606;-69
2023/08/03 04:43:42;;;;;;;;;4.00;3.00;;;;;;;;4844995;29;45180;-69
2023/08/03 04:46:07;;;;;;;;;9.50;7.25;;;;;;;;4845240;29;45252;-68
2023/08/03 04:48:32;;;;;;;;;4.25;2.00;;;;;;;;4845512;29;45431;-68
2023/08/03 04:50:57;;;;;;;;;4.50;2.00;;;;;;;;4844969;29;45562;-69
2023/08/03 04:53:23;;;;;;;;;2.50;2.50;;;;;;;;4844895;29;45379;-68
2023/08/03 04:55:48;;;;;;;;;5.00;3.00;;;;;;;;4845064;29;45393;-69
2023/08/03 04:58:13;;;;;;;;;3.25;2.00;;;;;;;;4844879;29;45439;-69
2023/08/03 05:00:38;;;;;;;;;2.50;2.00;;;;;;;;4844765;29;45524;-68
2023/08/03 05:03:03;;;;;;;;;3.00;1.00;;;;;;;;4844804;29;45456;-68
2023/08/03 05:05:29;;;;;;;;;2.50;2.00;;;;;;;;4845084;29;45435;-69
2023/08/03 05:07:54;;;;;;;;;1.00;1.00;;;;;;;;4844853;29;45320;-69
2023/08/03 05:10:19;;;;;;;;;3.25;3.00;;;;;;;;4844746;29;46504;-68
2023/08/03 05:12:44;;;;;;;;;1.00;1.00;;;;;;;;4844707;29;45298;-70
2023/08/03 05:15:09;;;;;;;;;3.25;3.00;;;;;;;;4844685;29;45397;-69
2023/08/03 05:17:35;;;;;;;;;2.00;0.00;;;;;;;;4845107;29;45363;-69
2023/08/03 05:20:00;;;;;;;;;0.75;0.75;;;;;;;;4844546;29;45620;-69
2023/08/03 05:22:25;;;;;;;;;1.00;1.00;;;;;;;;4844591;29;45384;-69
2023/08/03 05:24:51;;;;;;;;;1.50;1.00;;;;;;;;4844644;29;45318;-69
2023/08/03 05:27:16;;;;;;;;;1.00;1.00;;;;;;;;4844801;29;45388;-69
2023/08/03 05:29:44;;;;;;;;;1.00;1.00;;;;;;;;4844522;29;46310;-69
2023/08/03 05:32:10;;;;;;;;;0.25;0.25;;;;;;;;4844369;29;45420;-69
2023/08/03 05:34:35;;;;;;;;;1.75;1.75;;;;;;;;4844615;29;45285;-68
2023/08/03 05:37:00;;;;;;;;;2.75;1.00;;;;;;;;4844693;29;45252;-69
2023/08/03 05:39:28;;;;;;;;;1.00;1.00;;;;;;;;4844286;29;46074;-69
2023/08/03 05:41:53;;;;;;;;;1.80;1.00;;;;;;;;4844381;29;45354;-69
2023/08/03 05:44:19;;;;;;;;;2.75;1.00;;;;;;;;4844309;29;45289;-69
2023/08/03 05:46:44;;;;;;;;;0.00;0.00;;;;;;;;4844813;29;45227;-69
2023/08/03 05:49:09;;;;;;;;;2.25;2.00;;;;;;;;4844196;29;46927;-69
2023/08/03 05:51:35;;;;;;;;;3.00;3.00;;;;;;;;4844136;29;45324;-69
2023/08/03 05:54:00;;;;;;;;;1.00;1.00;;;;;;;;4843970;29;45422;-69
2023/08/03 05:56:25;;;;;;;;;0.00;0.00;;;;;;;;4844525;29;45230;-70
2023/08/03 05:58:51;;;;;;;;;1.00;1.00;;;;;;;;4844252;29;46342;-69
2023/08/03 06:01:20;;;;;;;;;0.00;0.00;;;;;;;;4844154;29;45587;-70
2023/08/03 06:03:45;;;;;;;;;1.00;1.00;;;;;;;;4844322;29;45434;-69
2023/08/03 06:06:11;;;;;;;;;0.00;0.00;;;;;;;;4844220;29;45542;-69
2023/08/03 06:08:41;;;;;;;;;0.75;0.75;;;;;;;;4843850;29;46844;-69
2023/08/03 06:11:07;;;;;;;;;0.75;0.75;;;;;;;;4845805;29;45449;-69
2023/08/03 06:13:33;;;;;;;;;1.50;0.00;;;;;;;;4847197;29;45285;-70
2023/08/03 06:16:02;;;;;;;;;2.25;1.00;;;;;;;;4847411;29;45434;-70
2023/08/03 06:18:29;;;;;;;;;1.25;1.00;;;;;;;;4846986;29;46538;-69
2023/08/03 06:20:54;;;;;;;;;0.00;0.00;;;;;;;;4847038;29;45309;-69
2023/08/03 06:23:24;;;;;;;;;0.00;0.00;;;;;;;;4847180;29;45455;-70
2023/08/03 06:25:51;;;;;;;;;0.00;0.00;;;;;;;;4847263;29;45325;-69
2023/08/03 06:28:17;;;;;;;;;1.00;1.00;;;;;;;;4846904;29;45492;-68
2023/08/03 06:30:42;;;;;;;;;0.00;0.00;;;;;;;;4846947;29;45250;-68
2023/08/03 06:33:09;;;;;;;;;0.00;0.00;;;;;;;;4846945;29;45263;-69
2023/08/03 06:35:36;;;;;;;;;0.00;0.00;;;;;;;;4846983;29;45486;-68
2023/08/03 06:38:02;;;;;;;;;0.00;0.00;;;;;;;;4846811;29;47461;-68
2023/08/03 06:40:28;;;;;;;;;0.50;0.50;;;;;;;;4846793;29;45750;-68
2023/08/03 06:42:53;;;;;;;;;2.00;1.00;;;;;;;;4846821;29;45168;-68
2023/08/03 06:45:18;;;;;;;;;1.00;1.00;;;;;;;;4847012;29;45402;-69
2023/08/03 06:47:43;;;;;;;;;1.00;1.00;;;;;;;;4846542;29;46648;-68
2023/08/03 06:50:09;;;;;;;;;4.00;1.00;;;;;;;;4846705;29;45238;-69
2023/08/03 06:52:34;;;;;;;;;0.00;0.00;;;;;;;;4846579;29;45259;-68
2023/08/03 06:55:00;;;;;;;;;1.00;1.00;;;;;;;;4846892;29;45369;-68
2023/08/03 06:57:25;;;;;;;;;2.00;2.00;;;;;;;;4846463;29;47400;-68
2023/08/03 06:59:50;;;;;;;;;1.00;1.00;;;;;;;;4846466;29;45368;-69
2023/08/03 07:02:15;;;;;;;;;0.00;0.00;;;;;;;;4846905;29;45376;-69
2023/08/03 07:04:40;;;;;;;;;5.75;1.75;;;;;;;;4846790;29;45299;-70
2023/08/03 07:07:07;;;;;;;;;2.00;1.00;;;;;;;;4846135;29;47178;-69
2023/08/03 07:09:32;;;;;;;;;1.00;1.00;;;;;;;;4846392;29;45569;-69
2023/08/03 07:11:59;;;;;;;;;2.25;2.00;;;;;;;;4846351;29;45313;-69
2023/08/03 07:14:24;;;;;;;;;5.00;3.75;;;;;;;;4846533;29;45417;-69
2023/08/03 07:16:50;;;;;;;;;1.00;1.00;;;;;;;;4845992;29;45382;-69
2023/08/03 07:19:16;;;;;;;;;1.00;1.00;;;;;;;;4846353;29;45507;-68
2023/08/03 07:21:41;;;;;;;;;1.00;1.00;;;;;;;;4845334;29;45319;-68
2023/08/03 07:24:06;;;;;;;;;1.00;1.00;;;;;;;;4846388;29;45449;-68
2023/08/03 07:26:31;;;;;;;;;1.00;1.00;;;;;;;;4846183;29;46463;-69
2023/08/03 07:28:57;;;;;;;;;2.25;2.00;;;;;;;;4845935;29;45303;-68
2023/08/03 07:31:24;;;;;;;;;4.00;3.50;;;;;;;;4846272;29;45443;-69
2023/08/03 07:33:49;;;;;;;;;1.00;1.00;;;;;;;;4846180;29;45555;-68
2023/08/03 07:36:15;;;;;;;;;7.00;2.75;;;;;;;;4846004;29;46333;-68
2023/08/03 07:38:40;;;;;;;;;1.75;1.75;;;;;;;;4846065;29;45246;-69
2023/08/03 07:41:06;;;;;;;;;3.00;1.00;;;;;;;;4845965;29;45332;-70
2023/08/03 07:43:31;;;;;;;;;0.00;0.00;;;;;;;;4846216;29;45486;-69
2023/08/03 07:45:56;;;;;;;;;1.75;1.50;;;;;;;;4845860;29;46261;-69
2023/08/03 07:48:21;;;;;;;;;1.50;1.50;;;;;;;;4845812;29;45319;-69
2023/08/03 07:50:47;;;;;;;;;2.00;2.00;;;;;;;;4846030;29;45439;-69
2023/08/03 07:53:12;;;;;;;;;1.50;1.50;;;;;;;;4845784;29;45189;-70
2023/08/03 07:55:37;;;;;;;;;2.00;2.00;;;;;;;;4845691;29;46373;-70
2023/08/03 07:58:02;;;;;;;;;3.75;2.50;;;;;;;;4845718;29;45236;-70
2023/08/03 08:00:27;;;;;;;;;2.50;2.50;;;;;;;;4845822;29;45164;-70
2023/08/03 08:02:53;;;;;;;;;4.00;4.00;;;;;;;;4846095;29;45220;-70
2023/08/03 08:05:21;;;;;;;;;4.50;3.25;;;;;;;;4845354;29;45458;-70
2023/08/03 08:07:46;;;;;;;;;4.00;4.00;;;;;;;;4845470;29;45362;-70
2023/08/03 08:10:12;;;;;;;;;6.00;5.00;;;;;;;;4845702;29;45352;-69
2023/08/03 08:12:37;;;;;;;;;3.75;3.75;;;;;;;;4845626;29;45444;-70
2023/08/03 08:15:03;;;;;;;;;4.00;3.00;;;;;;;;4845191;29;47183;-70
2023/08/03 08:17:28;;;;;;;;;2.00;2.00;;;;;;;;4845281;29;45439;-70
2023/08/03 08:19:55;;;;;;;;;5.25;3.00;;;;;;;;4845549;29;45302;-70
2023/08/03 08:22:20;;;;;;;;;8.75;5.00;;;;;;;;4845620;29;45311;-70
2023/08/03 08:24:46;;;;;;;;;3.00;3.00;;;;;;;;4843919;29;46093;-70
2023/08/03 08:27:11;;;;;;;;;3.00;3.00;;;;;;;;4851951;29;45458;-71
2023/08/03 08:29:37;;;;;;;;;2.50;2.50;;;;;;;;4844959;29;45875;-69
2023/08/03 08:32:02;;;;;;;;;6.00;3.50;;;;;;;;4843720;29;45455;-69
2023/08/03 08:34:27;;;;;;;;;3.25;3.00;;;;;;;;4842951;29;46914;-70
2023/08/03 08:36:55;;;;;;;;;8.00;6.00;;;;;;;;4841176;29;45434;-69
2023/08/03 08:39:20;;;;;;;;;3.00;3.00;;;;;;;;4843517;29;45463;-70
2023/08/03 08:41:45;;;;;;;;;3.25;3.00;;;;;;;;4844659;29;45600;-69
2023/08/03 08:44:14;;;;;;;;;9.00;4.00;;;;;;;;4844961;29;46320;-70
2023/08/03 08:46:42;;;;;;;;;5.00;4.00;;;;;;;;4844250;29;45483;-71
2023/08/03 08:49:08;;;;;;;;;3.50;3.00;;;;;;;;4843804;29;45354;-70
2023/08/03 08:51:33;;;;;;;;;6.00;3.50;;;;;;;;4844468;29;45614;-71
2023/08/03 08:53:58;;;;;;;;;4.50;3.00;;;;;;;;4843543;29;45444;-70
2023/08/03 08:56:24;;;;;;;;;3.00;2.00;;;;;;;;4843348;29;45495;-70
2023/08/03 08:58:49;;;;;;;;;1.00;1.00;;;;;;;;4844416;29;45391;-72
2023/08/03 09:01:15;;;;;;;;;2.00;2.00;;;;;;;;4844672;29;45414;-72
2023/08/03 09:03:55;;;;;;;;;3.50;3.25;;;;;;;;4844232;29;46262;-72
2023/08/03 09:06:21;;;;;;;;;4.00;2.75;;;;;;;;4843940;29;45523;-69
2023/08/03 09:08:49;;;;;;;;;0.75;0.75;;;;;;;;4844038;29;45407;-70
2023/08/03 09:11:14;;;;;;;;;3.25;1.75;;;;;;;;4844565;29;45432;-71
2023/08/03 09:13:39;;;;;;;;;2.25;2.00;;;;;;;;4843298;29;45424;-71
2023/08/03 09:16:04;;;;;;;;;2.00;2.00;;;;;;;;4842629;29;45446;-69
2023/08/03 09:18:31;;;;;;;;;2.00;2.00;;;;;;;;4843777;29;45607;-69
2023/08/03 09:21:10;;;;;;;;;1.00;1.00;;;;;;;;4844140;29;45524;-70
2023/08/03 09:23:36;;;;;;;;;3.25;1.00;;;;;;;;4843194;29;47214;-70
2023/08/03 09:26:01;;;;;;;;;5.75;2.75;;;;;;;;4843091;29;45351;-70
2023/08/03 09:28:36;;;;;;;;;4.75;3.00;;;;;;;;4842458;29;45581;-71
2023/08/03 09:31:02;;;;;;;;;3.50;3.50;;;;;;;;4840849;29;45536;-70
2023/08/03 09:33:27;;;;;;;;;4.75;4.00;;;;;;;;4843106;29;45300;-71
2023/08/03 09:36:10;;;;;;;;;8.50;4.00;;;;;;;;4843177;29;46420;-71
2023/08/03 09:38:36;;;;;;;;;4.33;4.33;;;;;;;;4843739;29;45363;-71
2023/08/03 09:41:01;;;;;;;;;7.33;5.00;;;;;;;;4843766;29;45288;-70
2023/08/03 09:43:27;;;;;;;;;9.67;7.00;;;;;;;;4843296;29;45670;-71
2023/08/03 09:45:53;;;;;;;;;9.50;6.75;;;;;;;;4844373;29;45426;-72
2023/08/03 09:48:19;;;;;;;;;6.00;6.00;;;;;;;;4846587;29;45523;-72
2023/08/03 09:50:49;;;;;;;;;7.33;6.00;;;;;;;;4846413;29;45435;-72
2023/08/03 09:53:15;;;;;;;;;5.33;5.33;;;;;;;;4845839;29;45612;-70
2023/08/03 09:55:45;;;;;;;;;4.67;4.00;;;;;;;;4845815;29;45484;-71
2023/08/03 09:58:13;;;;;;;;;7.33;7.33;;;;;;;;4846353;29;45480;-71
2023/08/03 10:00:42;;;;;;;;;7.33;5.33;;;;;;;;4845330;29;45477;-70
2023/08/03 10:03:13;;;;;;;;;7.33;6.00;;;;;;;;4845901;29;47321;-71
2023/08/03 10:05:59;;;;;;;;;7.67;7.67;;;;;;;;4846691;29;45427;-71
2023/08/03 10:08:31;;;;;;;;;8.67;4.00;;;;;;;;4833052;29;45477;-71
2023/08/03 10:11:00;;;;;;;;;8.00;5.67;;;;;;;;4846436;29;45401;-70
2023/08/03 10:13:26;;;;;;;;;6.00;5.00;;;;;;;;4845052;29;45673;-71
2023/08/03 10:15:51;;;;;;;;;6.67;6.67;;;;;;;;4846255;29;45644;-70
2023/08/03 10:18:17;;;;;;;;;3.33;3.33;;;;;;;;4846353;29;45253;-70
2023/08/03 10:20:43;;;;;;;;;4.33;4.33;;;;;;;;4846376;29;45481;-71
2023/08/03 10:23:18;;;;;;;;;3.67;1.00;;;;;;;;4846123;29;45477;-71
2023/08/03 10:25:49;;;;;;;;;2.33;2.33;;;;;;;;4846403;29;45350;-71
2023/08/03 10:28:14;;;;;;;;;3.33;2.00;;;;;;;;4846017;29;45485;-72
2023/08/03 10:30:58;;;;;;;;;2.00;2.00;;;;;;;;4845071;29;46140;-71
2023/08/03 10:33:23;;;;;;;;;3.00;2.00;;;;;;;;4843492;29;46620;-71
2023/08/03 10:35:49;;;;;;;;;3.00;1.33;;;;;;;;4846042;29;45366;-70
2023/08/03 10:38:18;;;;;;;;;3.00;3.00;;;;;;;;4846392;29;45505;-71
2023/08/03 10:40:43;;;;;;;;;2.00;2.00;;;;;;;;4846124;29;45373;-70
2023/08/03 10:43:09;;;;;;;;;4.67;3.00;;;;;;;;4845358;29;46628;-69
2023/08/03 10:45:35;;;;;;;;;2.67;2.00;;;;;;;;4844786;29;45414;-71
2023/08/03 10:48:21;;;;;;;;;6.00;2.33;;;;;;;;4845170;29;45445;-71
2023/08/03 10:50:58;;;;;;;;;2.67;1.67;;;;;;;;4839908;29;45323;-70
2023/08/03 10:53:23;;;;;;;;;3.33;1.33;;;;;;;;4845029;29;46393;-71
2023/08/03 10:55:50;;;;;;;;;2.00;2.00;;;;;;;;4845635;29;45460;-70
2023/08/03 10:58:16;;;;;;;;;3.00;2.00;;;;;;;;4844956;29;45510;-70
2023/08/03 11:00:42;;;;;;;;;2.00;2.00;;;;;;;;4845195;29;45353;-70
2023/08/03 11:03:07;;;;;;;;;1.33;1.33;;;;;;;;4843732;29;47059;-70
2023/08/03 11:05:33;;;;;;;;;4.67;2.00;;;;;;;;4845239;29;45534;-70
2023/08/03 11:07:58;;;;;;;;;1.00;1.00;;;;;;;;4845668;29;45386;-71
2023/08/03 11:10:23;;;;;;;;;3.00;3.00;;;;;;;;4845706;29;45242;-70
2023/08/03 11:12:48;;;;;;;;;2.67;2.00;;;;;;;;4845531;29;45537;-71
2023/08/03 11:15:17;;;;;;;;;2.00;2.00;;;;;;;;4845662;29;45425;-70
2023/08/03 11:17:45;;;;;;;;;1.00;1.00;;;;;;;;4843436;29;45563;-71
2023/08/03 11:20:14;;;;;;;;;3.75;1.00;;;;;;;;4845346;29;45404;-70
2023/08/03 11:22:40;;;;;;;;;3.00;1.00;;;;;;;;4844892;29;45597;-70
2023/08/03 11:25:06;;;;;;;;;2.50;1.00;;;;;;;;4845364;29;45590;-69
2023/08/03 11:27:31;;;;;;;;;3.00;3.00;;;;;;;;4844165;29;45480;-69
2023/08/03 11:29:58;;;;;;;;;3.75;0.50;;;;;;;;4845059;29;46457;-70
2023/08/03 11:32:25;;;;;;;;;2.00;1.00;;;;;;;;4860094;29;45618;-70
2023/08/03 11:35:01;;;;;;;;;1.50;0.75;;;;;;;;4864835;29;45408;-70
2023/08/03 11:37:28;;;;;;;;;5.33;2.33;;;;;;;;4864807;29;45426;-70
2023/08/03 11:39:53;;;;;;;;;2.00;2.00;;;;;;;;4864718;29;45259;-71
2023/08/03 11:42:18;;;;;;;;;2.00;1.00;;;;;;;;4864419;29;47381;-70
2023/08/03 11:44:46;;;;;;;;;1.25;0.75;;;;;;;;4864611;29;45470;-71
2023/08/03 11:47:12;;;;;;;;;1.00;1.00;;;;;;;;4864585;29;45338;-70
2023/08/03 11:49:37;;;;;;;;;3.00;1.00;;;;;;;;4864758;29;45322;-69
2023/08/03 11:52:02;;;;;;;;;2.00;1.00;;;;;;;;4863717;29;46335;-70
2023/08/03 11:54:29;;;;;;;;;2.00;2.00;;;;;;;;4845450;29;45483;-69
2023/08/03 11:56:55;;;;;;;;;2.50;1.25;;;;;;;;4845726;29;45176;-70
2023/08/03 11:59:21;;;;;;;;;2.50;1.00;;;;;;;;4855821;29;45420;-70
2023/08/03 12:01:47;;;;;;;;;2.50;1.00;;;;;;;;4864096;29;45756;-70
2023/08/03 12:04:12;;;;;;;;;1.25;1.25;;;;;;;;4864168;29;45199;-70
2023/08/03 12:06:56;;;;;;;;;1.00;1.00;;;;;;;;4864158;29;45252;-70
2023/08/03 12:09:25;;;;;;;;;2.00;2.00;;;;;;;;4863929;29;45273;-70
2023/08/03 12:11:50;;;;;;;;;2.25;1.00;;;;;;;;4863972;29;46307;-70
2023/08/03 12:14:19;;;;;;;;;3.00;1.00;;;;;;;;4864011;29;45415;-70
2023/08/03 12:16:45;;;;;;;;;20.33;18.67;;;;;;;;4864011;29;45437;-70
2023/08/03 12:19:10;;;;;;;;;6.67;5.00;;;;;;;;4864050;29;45363;-70
2023/08/03 12:21:36;;;;;;;;;3.00;2.00;;;;;;;;4864059;29;46223;-70
2023/08/03 12:24:02;;;;;;;;;1.75;1.75;;;;;;;;4863930;29;46100;-70
2023/08/03 12:26:27;;;;;;;;;1.75;1.75;;;;;;;;4863990;29;45224;-70
2023/08/03 12:28:52;;;;;;;;;3.00;1.00;;;;;;;;4864110;29;45242;-70
2023/08/03 12:31:17;;;;;;;;;0.75;0.75;;;;;;;;4863328;29;46310;-70
2023/08/03 12:33:42;;;;;;;;;1.00;1.00;;;;;;;;4863877;29;45256;-70
2023/08/03 12:36:08;;;;;;;;;1.00;1.00;;;;;;;;4863940;29;45246;-70
2023/08/03 12:38:33;;;;;;;;;3.00;1.50;;;;;;;;4864114;29;45314;-70
2023/08/03 12:40:58;;;;;;;;;2.25;1.00;;;;;;;;4847445;29;45763;-69
2023/08/03 12:43:23;;;;;;;;;3.75;1.00;;;;;;;;4844980;29;45333;-70
2023/08/03 12:45:49;;;;;;;;;1.00;1.00;;;;;;;;4845153;29;45412;-70
2023/08/03 12:48:14;;;;;;;;;1.00;1.00;;;;;;;;4845201;29;45403;-70
2023/08/03 12:50:39;;;;;;;;;3.25;1.00;;;;;;;;4844795;29;46105;-70
2023/08/03 12:53:04;;;;;;;;;5.33;5.33;;;;;;;;4848443;29;45459;-69
2023/08/03 12:55:30;;;;;;;;;2.00;0.25;;;;;;;;4863576;29;45354;-70
2023/08/03 12:57:55;;;;;;;;;3.75;2.00;;;;;;;;4863771;29;45337;-70
2023/08/03 13:00:23;;;;;;;;;2.00;2.00;;;;;;;;4863364;29;46239;-70
2023/08/03 13:02:48;;;;;;;;;4.00;1.00;;;;;;;;4863235;29;45391;-70
2023/08/03 13:05:13;;;;;;;;;5.00;5.00;;;;;;;;4863507;29;45460;-69
2023/08/03 13:07:38;;;;;;;;;0.00;0.00;;;;;;;;4863403;29;45391;-70
2023/08/03 13:10:03;;;;;;;;;4.67;4.67;;;;;;;;4863476;29;46377;-69
2023/08/03 13:12:29;;;;;;;;;2.25;1.50;;;;;;;;4863452;29;45359;-70
2023/08/03 13:14:54;;;;;;;;;3.25;1.25;;;;;;;;4863481;29;45364;-70
2023/08/03 13:17:19;;;;;;;;;1.00;1.00;;;;;;;;4863495;29;45248;-70
2023/08/03 13:19:44;;;;;;;;;0.75;0.75;;;;;;;;4864668;29;46476;-70
2023/08/03 13:22:09;;;;;;;;;1.75;1.50;;;;;;;;4866518;29;45376;-70
2023/08/03 13:24:35;;;;;;;;;1.50;1.00;;;;;;;;4852575;29;45382;-70
2023/08/03 13:27:13;;;;;;;;;1.00;1.00;;;;;;;;4848384;29;45492;-70
2023/08/03 13:29:42;;;;;;;;;2.00;2.00;;;;;;;;4847850;29;47196;-69
2023/08/03 13:32:07;;;;;;;;;2.00;1.00;;;;;;;;4846998;29;45415;-71
2023/08/03 13:34:32;;;;;;;;;1.00;1.00;;;;;;;;4848132;29;45335;-70
2023/08/03 13:36:57;;;;;;;;;2.00;2.00;;;;;;;;4848089;29;45320;-70
2023/08/03 13:39:22;;;;;;;;;3.00;1.00;;;;;;;;4847729;29;45403;-71
2023/08/03 13:41:48;;;;;;;;;2.25;1.00;;;;;;;;4847783;29;45326;-70
2023/08/03 13:44:13;;;;;;;;;1.00;1.00;;;;;;;;4847927;29;45382;-70
2023/08/03 13:46:38;;;;;;;;;2.67;1.00;;;;;;;;4848018;29;45383;-70
2023/08/03 13:49:03;;;;;;;;;3.33;2.00;;;;;;;;4847472;29;45517;-70
2023/08/03 13:51:28;;;;;;;;;2.00;0.75;;;;;;;;4847626;29;45454;-70
2023/08/03 13:53:56;;;;;;;;;2.00;2.00;;;;;;;;4847679;29;45512;-70
2023/08/03 13:56:21;;;;;;;;;2.00;2.00;;;;;;;;4847703;29;45368;-70
2023/08/03 13:58:46;;;;;;;;;2.75;1.00;;;;;;;;4847313;29;45320;-70
2023/08/03 14:01:12;;;;;;;;;1.75;1.75;;;;;;;;4846868;29;45444;-70
2023/08/03 14:03:37;;;;;;;;;2.33;2.33;;;;;;;;4847467;29;45238;-70
2023/08/03 14:06:02;;;;;;;;;3.67;2.00;;;;;;;;4847262;29;45241;-70
2023/08/03 14:08:27;;;;;;;;;1.75;1.75;;;;;;;;4847243;29;47402;-70
2023/08/03 14:10:53;;;;;;;;;2.33;2.00;;;;;;;;4847434;29;45230;-69
2023/08/03 14:13:18;;;;;;;;;2.67;1.00;;;;;;;;4847226;29;45558;-69
2023/08/03 14:15:44;;;;;;;;;8.00;7.33;;;;;;;;4847573;29;45212;-70
2023/08/03 14:18:09;;;;;;;;;3.00;1.67;;;;;;;;4846939;29;45381;-70
2023/08/03 14:20:34;;;;;;;;;1.50;1.50;;;;;;;;4847339;29;45511;-70
2023/08/03 14:22:59;;;;;;;;;4.25;2.75;;;;;;;;4847415;29;45439;-70
2023/08/03 14:25:24;;;;;;;;;0.50;0.50;;;;;;;;4847362;29;45352;-70
2023/08/03 14:27:52;;;;;;;;;3.00;3.00;;;;;;;;4847224;29;46311;-70
2023/08/03 14:30:17;;;;;;;;;2.00;2.00;;;;;;;;4846339;29;45311;-70
2023/08/03 14:32:43;;;;;;;;;3.67;2.00;;;;;;;;4846305;29;45370;-70
2023/08/03 14:35:08;;;;;;;;;2.00;1.00;;;;;;;;4846999;29;45299;-70
2023/08/03 14:37:33;;;;;;;;;2.67;1.00;;;;;;;;4845660;29;45643;-71